sensor_id;sensor_type;location;lat;lon;timestamp;pressure;altitude;pressure_sealevel;temperature;humidity
27425;BME280;15244;49.088;11.886;2023-09-19T00:02:57;95425.69;;;20.14;54.95
27425;BME280;15244;49.088;11.886;2023-09-19T00:08:01;95441.09;;;20.16;54.85
27425;BME280;15244;49.088;11.886;2023-09-19T00:13:06;95435.09;;;20.17;54.88
27425;BME280;15244;49.088;11.886;2023-09-19T00:18:08;95426.66;;;20.21;55.16
27425;BME280;15244;49.088;11.886;2023-09-19T00:23:11;95428.97;;;20.22;55.29
27425;BME280;15244;49.088;11.886;2023-09-19T00:28:13;95432.38;;;20.26;55.22
27425;BME280;15244;49.088;11.886;2023-09-19T00:33:16;95422.06;;;20.27;54.83
27425;BME280;15244;49.088;11.886;2023-09-19T00:38:19;95432.38;;;20.26;54.95
27425;BME280;15244;49.088;11.886;2023-09-19T00:43:26;95427.28;;;20.25;54.96
27425;BME280;15244;49.088;11.886;2023-09-19T00:48:29;95429.44;;;20.21;55.18
27425;BME280;15244;49.088;11.886;2023-09-19T00:53:34;95435.72;;;20.21;55.22
27425;BME280;15244;49.088;11.886;2023-09-19T00:58:36;95436.34;;;20.25;55.28
27425;BME280;15244;49.088;11.886;2023-09-19T01:03:39;95437.75;;;20.30;55.29
27425;BME280;15244;49.088;11.886;2023-09-19T01:08:43;95428.69;;;20.29;55.42
27425;BME280;15244;49.088;11.886;2023-09-19T01:13:51;95437.75;;;20.30;55.38
27425;BME280;15244;49.088;11.886;2023-09-19T01:30:24;95455.03;;;20.34;55.30
27425;BME280;15244;49.088;11.886;2023-09-19T01:35:28;95449.47;;;20.34;55.30
27425;BME280;15244;49.088;11.886;2023-09-19T01:40:30;95467.19;;;20.37;55.48
27425;BME280;15244;49.088;11.886;2023-09-19T01:45:50;95467.19;;;20.37;55.30
27425;BME280;15244;49.088;11.886;2023-09-19T01:51:02;95478.09;;;20.40;55.17
27425;BME280;15244;49.088;11.886;2023-09-19T01:56:08;95463.81;;;20.42;55.39
27425;BME280;15244;49.088;11.886;2023-09-19T02:01:19;95456.44;;;20.39;55.21
27425;BME280;15244;49.088;11.886;2023-09-19T02:06:21;95473.47;;;20.37;55.30
27425;BME280;15244;49.088;11.886;2023-09-19T02:11:26;95463.31;;;20.34;55.11
27425;BME280;15244;49.088;11.886;2023-09-19T02:16:27;95470.22;;;20.29;55.29
27425;BME280;15244;49.088;11.886;2023-09-19T02:21:30;95479.44;;;20.26;55.22
27425;BME280;15244;49.088;11.886;2023-09-19T02:26:32;95476.50;;;20.21;55.17
27425;BME280;15244;49.088;11.886;2023-09-19T02:31:39;95463.22;;;20.16;55.12
27425;BME280;15244;49.088;11.886;2023-09-19T02:36:44;95463.81;;;20.10;55.20
27425;BME280;15244;49.088;11.886;2023-09-19T02:41:46;95465.63;;;20.04;55.29
27425;BME280;15244;49.088;11.886;2023-09-19T02:46:47;95469.63;;;20.03;55.29
27425;BME280;15244;49.088;11.886;2023-09-19T02:51:49;95488.34;;;19.99;55.42
27425;BME280;15244;49.088;11.886;2023-09-19T02:56:51;95493.22;;;19.95;54.99
27425;BME280;15244;49.088;11.886;2023-09-19T03:01:52;95497.66;;;19.92;55.27
27425;BME280;15244;49.088;11.886;2023-09-19T03:06:56;95500.13;;;19.90;55.48
27425;BME280;15244;49.088;11.886;2023-09-19T03:12:02;95503.50;;;19.95;55.34
27425;BME280;15244;49.088;11.886;2023-09-19T03:17:07;95514.91;;;19.97;55.31
27425;BME280;15244;49.088;11.886;2023-09-19T03:22:11;95521.97;;;19.98;55.49
27425;BME280;15244;49.088;11.886;2023-09-19T03:27:13;95524.88;;;19.94;55.64
27425;BME280;15244;49.088;11.886;2023-09-19T03:32:17;95525.22;;;19.96;55.54
27425;BME280;15244;49.088;11.886;2023-09-19T03:37:20;95521.22;;;19.97;55.57
27425;BME280;15244;49.088;11.886;2023-09-19T03:42:21;95522.56;;;19.92;55.55
27425;BME280;15244;49.088;11.886;2023-09-19T03:47:28;95531.66;;;19.93;55.59
27425;BME280;15244;49.088;11.886;2023-09-19T03:52:32;95536.72;;;19.95;55.52
27425;BME280;15244;49.088;11.886;2023-09-19T03:57:33;95525.66;;;19.95;55.50
27425;BME280;15244;49.088;11.886;2023-09-19T04:02:40;95529.19;;;19.95;55.55
27425;BME280;15244;49.088;11.886;2023-09-19T04:07:42;95531.94;;;19.95;55.39
27425;BME280;15244;49.088;11.886;2023-09-19T04:12:54;95539.94;;;19.93;55.24
27425;BME280;15244;49.088;11.886;2023-09-19T04:17:56;95542.19;;;19.85;55.36
27425;BME280;15244;49.088;11.886;2023-09-19T04:22:58;95541.53;;;19.81;55.60
27425;BME280;15244;49.088;11.886;2023-09-19T04:28:01;95542.31;;;19.82;55.71
27425;BME280;15244;49.088;11.886;2023-09-19T04:33:03;95545.41;;;19.84;55.28
27425;BME280;15244;49.088;11.886;2023-09-19T04:38:08;95549.41;;;19.83;55.57
27425;BME280;15244;49.088;11.886;2023-09-19T04:43:10;95558.56;;;19.80;55.47
27425;BME280;15244;49.088;11.886;2023-09-19T04:48:12;95569.53;;;19.83;55.43
27425;BME280;15244;49.088;11.886;2023-09-19T04:53:17;95571.19;;;19.81;55.54
27425;BME280;15244;49.088;11.886;2023-09-19T04:58:22;95574.53;;;19.76;55.71
27425;BME280;15244;49.088;11.886;2023-09-19T05:03:24;95575.75;;;19.75;55.71
27425;BME280;15244;49.088;11.886;2023-09-19T05:08:25;95578.06;;;19.76;55.67
27425;BME280;15244;49.088;11.886;2023-09-19T05:13:28;95581.59;;;19.77;55.47
27425;BME280;15244;49.088;11.886;2023-09-19T05:18:29;95591.13;;;19.76;55.61
27425;BME280;15244;49.088;11.886;2023-09-19T05:23:33;95583.59;;;19.76;55.59
27425;BME280;15244;49.088;11.886;2023-09-19T05:28:35;95583.59;;;19.76;55.64
27425;BME280;15244;49.088;11.886;2023-09-19T05:33:39;95595.91;;;19.75;55.67
27425;BME280;15244;49.088;11.886;2023-09-19T05:38:41;95591.91;;;19.76;55.51
27425;BME280;15244;49.088;11.886;2023-09-19T05:43:43;95599.09;;;19.74;55.46
27425;BME280;15244;49.088;11.886;2023-09-19T05:48:46;95605.97;;;19.69;55.58
27425;BME280;15244;49.088;11.886;2023-09-19T05:53:49;95604.50;;;19.64;55.44
27425;BME280;15244;49.088;11.886;2023-09-19T05:58:54;95601.72;;;19.64;55.54
27425;BME280;15244;49.088;11.886;2023-09-19T06:03:55;95613.69;;;19.61;55.87
27425;BME280;15244;49.088;11.886;2023-09-19T06:08:57;95611.38;;;19.60;55.78
27425;BME280;15244;49.088;11.886;2023-09-19T06:13:59;95625.22;;;19.60;55.84
27425;BME280;15244;49.088;11.886;2023-09-19T06:19:02;95628.41;;;19.58;55.72
27425;BME280;15244;49.088;11.886;2023-09-19T06:24:04;95626.97;;;19.54;55.67
27425;BME280;15244;49.088;11.886;2023-09-19T06:29:06;95631.97;;;19.46;56.01
27425;BME280;15244;49.088;11.886;2023-09-19T06:34:09;95635.16;;;19.44;55.87
27425;BME280;15244;49.088;11.886;2023-09-19T06:39:10;95648.13;;;19.47;55.97
27425;BME280;15244;49.088;11.886;2023-09-19T06:44:12;95643.69;;;19.50;55.94
27425;BME280;15244;49.088;11.886;2023-09-19T06:49:14;95642.81;;;19.53;55.96
27425;BME280;15244;49.088;11.886;2023-09-19T06:54:16;95655.31;;;19.58;56.08
27425;BME280;15244;49.088;11.886;2023-09-19T06:59:19;95668.66;;;19.59;56.04
27425;BME280;15244;49.088;11.886;2023-09-19T07:04:21;95675.63;;;19.64;56.13
27425;BME280;15244;49.088;11.886;2023-09-19T07:09:23;95680.06;;;19.61;56.33
27425;BME280;15244;49.088;11.886;2023-09-19T07:14:25;95671.56;;;19.56;56.33
27425;BME280;15244;49.088;11.886;2023-09-19T07:19:26;95687.25;;;19.59;56.31
27425;BME280;15244;49.088;11.886;2023-09-19T07:24:33;95682.06;;;19.61;56.34
27425;BME280;15244;49.088;11.886;2023-09-19T07:29:34;95685.41;;;19.68;56.33
27425;BME280;15244;49.088;11.886;2023-09-19T07:34:36;95678.41;;;19.77;56.26
27425;BME280;15244;49.088;11.886;2023-09-19T07:39:37;95681.50;;;19.91;56.46
27425;BME280;15244;49.088;11.886;2023-09-19T07:44:42;95700.84;;;20.04;55.99
27425;BME280;15244;49.088;11.886;2023-09-19T07:49:48;95711.66;;;20.11;55.63
27425;BME280;15244;49.088;11.886;2023-09-19T07:54:50;95721.19;;;20.10;55.67
27425;BME280;15244;49.088;11.886;2023-09-19T07:59:52;95713.34;;;20.09;55.50
27425;BME280;15244;49.088;11.886;2023-09-19T08:04:53;95720.66;;;20.03;55.47
27425;BME280;15244;49.088;11.886;2023-09-19T08:09:55;95726.50;;;20.05;55.21
27425;BME280;15244;49.088;11.886;2023-09-19T08:14:57;95724.63;;;20.02;55.32
27425;BME280;15244;49.088;11.886;2023-09-19T08:19:58;95721.19;;;20.10;55.35
27425;BME280;15244;49.088;11.886;2023-09-19T08:25:00;95733.78;;;20.24;55.37
27425;BME280;15244;49.088;11.886;2023-09-19T08:30:03;95730.72;;;20.44;55.21
27425;BME280;15244;49.088;11.886;2023-09-19T08:35:06;95722.59;;;20.63;54.85
27425;BME280;15244;49.088;11.886;2023-09-19T08:40:10;95740.66;;;20.67;54.14
27425;BME280;15244;49.088;11.886;2023-09-19T08:45:12;95733.44;;;20.70;54.32
27425;BME280;15244;49.088;11.886;2023-09-19T08:50:26;95750.28;;;20.63;54.04
27425;BME280;15244;49.088;11.886;2023-09-19T08:55:31;95757.19;;;20.58;54.04
27425;BME280;15244;49.088;11.886;2023-09-19T09:00:34;95766.94;;;20.50;53.41
27425;BME280;15244;49.088;11.886;2023-09-19T09:05:36;95765.19;;;20.56;53.76
27425;BME280;15244;49.088;11.886;2023-09-19T09:10:38;95771.69;;;20.62;53.73
27425;BME280;15244;49.088;11.886;2023-09-19T09:15:42;95780.75;;;20.63;53.65
27425;BME280;15244;49.088;11.886;2023-09-19T09:20:46;95762.28;;;20.60;53.07
27425;BME280;15244;49.088;11.886;2023-09-19T09:25:50;95765.19;;;20.56;nan
27425;BME280;15244;49.088;11.886;2023-09-19T09:30:54;95782.00;;;20.62;52.86
27425;BME280;15244;49.088;11.886;2023-09-19T09:36:01;95776.47;;;20.62;52.29
27425;BME280;15244;49.088;11.886;2023-09-19T09:41:04;95779.09;;;20.52;52.20
27425;BME280;15244;49.088;11.886;2023-09-19T09:46:18;95781.81;;;20.56;52.03
27425;BME280;15244;49.088;11.886;2023-09-19T09:51:29;95787.66;;;20.58;52.06
27425;BME280;15244;49.088;11.886;2023-09-19T09:56:33;95790.75;;;20.60;52.00
27425;BME280;15244;49.088;11.886;2023-09-19T10:01:48;95784.19;;;20.67;51.53
27425;BME280;15244;49.088;11.886;2023-09-19T10:06:55;95795.03;;;20.74;51.24
27425;BME280;15244;49.088;11.886;2023-09-19T10:12:06;95797.44;;;20.85;51.48
27425;BME280;15244;49.088;11.886;2023-09-19T10:17:10;95801.16;;;20.91;51.15
27425;BME280;15244;49.088;11.886;2023-09-19T10:22:18;95808.91;;;20.96;51.30
27425;BME280;15244;49.088;11.886;2023-09-19T10:27:26;95798.28;;;20.94;50.84
27425;BME280;15244;49.088;11.886;2023-09-19T10:32:28;95798.66;;;21.06;51.02
27425;BME280;15244;49.088;11.886;2023-09-19T10:37:37;95792.03;;;21.25;51.43
27425;BME280;15244;49.088;11.886;2023-09-19T10:42:40;95791.41;;;21.43;51.05
27425;BME280;15244;49.088;11.886;2023-09-19T10:47:43;95795.91;;;21.50;50.94
27425;BME280;15244;49.088;11.886;2023-09-19T10:52:45;95791.97;;;21.60;50.27
27425;BME280;15244;49.088;11.886;2023-09-19T10:57:48;95802.47;;;21.65;50.38
27425;BME280;15244;49.088;11.886;2023-09-19T11:08:11;95799.28;;;21.76;50.63
27425;BME280;15244;49.088;11.886;2023-09-19T11:13:34;95801.91;;;21.79;49.95
27425;BME280;15244;49.088;11.886;2023-09-19T11:34:39;95795.44;;;21.82;49.64
27425;BME280;15244;49.088;11.886;2023-09-19T11:40:05;95797.94;;;21.90;49.54
27425;BME280;15244;49.088;11.886;2023-09-19T11:50:59;95785.47;;;21.94;49.15
27425;BME280;15244;49.088;11.886;2023-09-19T11:56:06;95781.78;;;21.97;48.75
27425;BME280;15244;49.088;11.886;2023-09-19T12:01:20;95781.03;;;22.06;49.15
27425;BME280;15244;49.088;11.886;2023-09-19T12:06:23;95782.59;;;22.07;48.87
27425;BME280;15244;49.088;11.886;2023-09-19T12:11:31;95794.16;;;22.15;48.44
27425;BME280;15244;49.088;11.886;2023-09-19T12:16:37;95790.69;;;22.23;48.47
27425;BME280;15244;49.088;11.886;2023-09-19T12:21:39;95792.25;;;22.34;48.08
27425;BME280;15244;49.088;11.886;2023-09-19T12:26:43;95776.19;;;22.38;47.98
27425;BME280;15244;49.088;11.886;2023-09-19T12:31:51;95769.59;;;22.44;47.45
27425;BME280;15244;49.088;11.886;2023-09-19T12:37:07;95778.38;;;22.34;44.87
27425;BME280;15244;49.088;11.886;2023-09-19T12:42:24;95772.03;;;22.33;45.84
27425;BME280;15244;49.088;11.886;2023-09-19T12:47:27;95778.81;;;22.32;45.69
27425;BME280;15244;49.088;11.886;2023-09-19T12:52:36;95763.88;;;22.39;45.71
27425;BME280;15244;49.088;11.886;2023-09-19T12:57:38;95759.84;;;22.31;44.87
27425;BME280;15244;49.088;11.886;2023-09-19T13:08:29;95769.13;;;22.46;44.61
27425;BME280;15244;49.088;11.886;2023-09-19T13:13:33;95752.63;;;22.52;44.64
27425;BME280;15244;49.088;11.886;2023-09-19T13:18:50;95768.38;;;22.64;44.00
27425;BME280;15244;49.088;11.886;2023-09-19T13:23:56;95751.84;;;22.79;44.33
27425;BME280;15244;49.088;11.886;2023-09-19T13:29:01;95747.84;;;22.89;44.23
27425;BME280;15244;49.088;11.886;2023-09-19T13:34:02;95757.28;;;23.01;43.50
27425;BME280;15244;49.088;11.886;2023-09-19T13:39:04;95755.88;;;23.14;43.58
27425;BME280;15244;49.088;11.886;2023-09-19T13:44:07;95751.69;;;23.28;43.44
27425;BME280;15244;49.088;11.886;2023-09-19T13:49:09;95760.31;;;23.40;43.02
27425;BME280;15244;49.088;11.886;2023-09-19T13:54:11;95745.44;;;23.52;42.85
27425;BME280;15244;49.088;11.886;2023-09-19T13:59:16;95749.91;;;23.58;42.82
27425;BME280;15244;49.088;11.886;2023-09-19T14:04:18;95750.84;;;23.55;42.44
27425;BME280;15244;49.088;11.886;2023-09-19T14:09:19;95751.47;;;23.50;41.87
27425;BME280;15244;49.088;11.886;2023-09-19T14:14:24;95749.03;;;23.34;41.24
27425;BME280;15244;49.088;11.886;2023-09-19T14:19:27;95740.69;;;23.34;42.10
27425;BME280;15244;49.088;11.886;2023-09-19T14:24:28;95734.16;;;23.46;42.09
27425;BME280;15244;49.088;11.886;2023-09-19T14:29:32;95732.31;;;23.52;41.52
27425;BME280;15244;49.088;11.886;2023-09-19T14:34:34;95725.78;;;23.55;41.96
27425;BME280;15244;49.088;11.886;2023-09-19T14:39:38;95723.31;;;23.57;41.88
27425;BME280;15244;49.088;11.886;2023-09-19T14:44:41;95718.81;;;23.60;41.83
27425;BME280;15244;49.088;11.886;2023-09-19T14:49:42;95714.28;;;23.72;41.89
27425;BME280;15244;49.088;11.886;2023-09-19T14:54:44;95715.94;;;23.88;41.38
27425;BME280;15244;49.088;11.886;2023-09-19T14:59:48;95713.94;;;23.88;40.80
27425;BME280;15244;49.088;11.886;2023-09-19T15:04:49;95717.03;;;23.90;40.64
27425;BME280;15244;49.088;11.886;2023-09-19T15:09:52;95717.59;;;23.94;40.81
27425;BME280;15244;49.088;11.886;2023-09-19T15:14:56;95709.22;;;24.04;40.51
27425;BME280;15244;49.088;11.886;2023-09-19T15:19:58;95713.47;;;24.14;40.29
27425;BME280;15244;49.088;11.886;2023-09-19T15:25:00;95701.94;;;24.06;39.76
27425;BME280;15244;49.088;11.886;2023-09-19T15:30:03;95709.44;;;24.15;39.80
27425;BME280;15244;49.088;11.886;2023-09-19T15:35:07;95712.75;;;24.28;39.71
27425;BME280;15244;49.088;11.886;2023-09-19T15:40:13;95713.75;;;24.40;39.80
27425;BME280;15244;49.088;11.886;2023-09-19T15:45:17;95715.13;;;24.44;40.08
27425;BME280;15244;49.088;11.886;2023-09-19T15:50:20;95694.22;;;24.49;39.29
27425;BME280;15244;49.088;11.886;2023-09-19T15:55:23;95704.53;;;24.58;39.20
27425;BME280;15244;49.088;11.886;2023-09-19T16:00:24;95692.06;;;24.68;39.03
27425;BME280;15244;49.088;11.886;2023-09-19T16:05:26;95701.69;;;24.82;39.25
27425;BME280;15244;49.088;11.886;2023-09-19T16:10:28;95702.09;;;24.90;38.98
27425;BME280;15244;49.088;11.886;2023-09-19T16:15:30;95704.69;;;24.93;38.66
27425;BME280;15244;49.088;11.886;2023-09-19T16:20:32;95704.78;;;24.99;38.44
27425;BME280;15244;49.088;11.886;2023-09-19T16:25:35;95708.16;;;25.03;38.25
27425;BME280;15244;49.088;11.886;2023-09-19T16:30:36;95697.88;;;24.94;37.85
27425;BME280;15244;49.088;11.886;2023-09-19T16:35:40;95696.41;;;24.84;37.91
27425;BME280;15244;49.088;11.886;2023-09-19T16:40:51;95696.97;;;24.73;37.64
27425;BME280;15244;49.088;11.886;2023-09-19T16:45:56;95699.84;;;24.64;37.64
27425;BME280;15244;49.088;11.886;2023-09-19T16:51:00;95703.47;;;24.55;37.61
27425;BME280;15244;49.088;11.886;2023-09-19T16:56:08;95696.41;;;24.45;37.46
27425;BME280;15244;49.088;11.886;2023-09-19T17:01:13;95695.69;;;24.35;37.76
27425;BME280;15244;49.088;11.886;2023-09-19T17:06:16;95696.53;;;24.27;37.57
27425;BME280;15244;49.088;11.886;2023-09-19T17:11:20;95703.72;;;24.18;37.72
27425;BME280;15244;49.088;11.886;2023-09-19T17:16:22;95694.34;;;24.07;38.15
27425;BME280;15244;49.088;11.886;2023-09-19T17:21:25;95709.25;;;23.94;38.17
27425;BME280;15244;49.088;11.886;2023-09-19T17:26:28;95720.00;;;23.77;38.07
27425;BME280;15244;49.088;11.886;2023-09-19T17:31:30;95716.50;;;23.58;38.37
27425;BME280;15244;49.088;11.886;2023-09-19T17:36:31;95718.09;;;23.41;38.68
27425;BME280;15244;49.088;11.886;2023-09-19T17:41:39;95722.97;;;23.22;38.71
27425;BME280;15244;49.088;11.886;2023-09-19T17:46:43;95719.56;;;23.09;39.06
27425;BME280;15244;49.088;11.886;2023-09-19T17:51:45;95706.59;;;22.97;39.43
27425;BME280;15244;49.088;11.886;2023-09-19T17:56:47;95715.88;;;22.84;39.63
27425;BME280;15244;49.088;11.886;2023-09-19T18:01:50;95715.13;;;22.75;39.85
27425;BME280;15244;49.088;11.886;2023-09-19T18:06:52;95734.25;;;22.63;39.81
27425;BME280;15244;49.088;11.886;2023-09-19T18:11:54;95731.63;;;22.50;39.92
27425;BME280;15244;49.088;11.886;2023-09-19T18:16:55;95736.72;;;22.43;40.38
27425;BME280;15244;49.088;11.886;2023-09-19T18:21:59;95750.13;;;22.35;40.59
27425;BME280;15244;49.088;11.886;2023-09-19T18:27:05;95749.66;;;22.27;40.62
27425;BME280;15244;49.088;11.886;2023-09-19T18:32:09;95765.38;;;22.21;41.04
27425;BME280;15244;49.088;11.886;2023-09-19T18:37:11;95760.84;;;22.15;40.97
27425;BME280;15244;49.088;11.886;2023-09-19T18:42:12;95766.69;;;22.07;41.04
27425;BME280;15244;49.088;11.886;2023-09-19T18:47:14;95762.22;;;22.01;41.34
27425;BME280;15244;49.088;11.886;2023-09-19T18:52:17;95758.47;;;21.95;41.16
27425;BME280;15244;49.088;11.886;2023-09-19T18:57:18;95762.78;;;21.86;41.27
27425;BME280;15244;49.088;11.886;2023-09-19T19:02:22;95768.91;;;21.81;41.63
27425;BME280;15244;49.088;11.886;2023-09-19T19:07:25;95768.44;;;21.74;41.64
27425;BME280;15244;49.088;11.886;2023-09-19T19:12:27;95765.94;;;21.67;42.03
27425;BME280;15244;49.088;11.886;2023-09-19T19:17:28;95774.06;;;21.61;41.92
27425;BME280;15244;49.088;11.886;2023-09-19T19:22:33;95770.81;;;21.53;42.12
27425;BME280;15244;49.088;11.886;2023-09-19T19:27:38;95770.94;;;21.50;42.40
27425;BME280;15244;49.088;11.886;2023-09-19T19:32:39;95771.53;;;21.45;42.41
27425;BME280;15244;49.088;11.886;2023-09-19T19:37:43;95773.66;;;21.40;42.68
27425;BME280;15244;49.088;11.886;2023-09-19T19:42:44;95770.69;;;21.35;42.62
27425;BME280;15244;49.088;11.886;2023-09-19T19:47:49;95781.88;;;21.31;42.78
27425;BME280;15244;49.088;11.886;2023-09-19T19:52:54;95788.03;;;21.26;43.06
27425;BME280;15244;49.088;11.886;2023-09-19T19:57:58;95793.38;;;21.20;43.39
27425;BME280;15244;49.088;11.886;2023-09-19T20:03:00;95793.19;;;21.15;43.37
27425;BME280;15244;49.088;11.886;2023-09-19T20:08:01;95784.69;;;21.09;43.21
27425;BME280;15244;49.088;11.886;2023-09-19T20:13:08;95784.03;;;21.05;43.51
27425;BME280;15244;49.088;11.886;2023-09-19T20:18:11;95795.38;;;20.98;43.36
27425;BME280;15244;49.088;11.886;2023-09-19T20:23:14;95793.63;;;20.91;43.64
27425;BME280;15244;49.088;11.886;2023-09-19T20:28:16;95803.75;;;20.85;43.68
27425;BME280;15244;49.088;11.886;2023-09-19T20:33:23;95803.53;;;20.80;43.81
27425;BME280;15244;49.088;11.886;2023-09-19T20:38:25;95802.56;;;20.73;43.65
27425;BME280;15244;49.088;11.886;2023-09-19T20:43:30;95800.69;;;20.70;43.79
27425;BME280;15244;49.088;11.886;2023-09-19T20:48:32;95809.56;;;20.65;44.17
27425;BME280;15244;49.088;11.886;2023-09-19T20:53:39;95807.38;;;20.60;44.31
27425;BME280;15244;49.088;11.886;2023-09-19T20:58:42;95806.38;;;20.54;44.44
27425;BME280;15244;49.088;11.886;2023-09-19T21:03:44;95804.94;;;20.49;44.47
27425;BME280;15244;49.088;11.886;2023-09-19T21:08:46;95800.72;;;20.45;44.27
27425;BME280;15244;49.088;11.886;2023-09-19T21:13:49;95810.25;;;20.44;44.26
27425;BME280;15244;49.088;11.886;2023-09-19T21:18:53;95810.84;;;20.39;44.42
27425;BME280;15244;49.088;11.886;2023-09-19T21:23:55;95811.84;;;20.32;44.56
27425;BME280;15244;49.088;11.886;2023-09-19T21:28:57;95805.63;;;20.28;44.54
27425;BME280;15244;49.088;11.886;2023-09-19T21:33:59;95803.75;;;20.25;44.56
27425;BME280;15244;49.088;11.886;2023-09-19T21:39:01;95807.41;;;20.22;44.78
27425;BME280;15244;49.088;11.886;2023-09-19T21:44:03;95813.06;;;20.18;44.74
27425;BME280;15244;49.088;11.886;2023-09-19T21:49:04;95805.63;;;20.15;44.88
27425;BME280;15244;49.088;11.886;2023-09-19T21:54:06;95810.97;;;20.09;44.84
27425;BME280;15244;49.088;11.886;2023-09-19T21:59:08;95811.19;;;20.02;44.89
27425;BME280;15244;49.088;11.886;2023-09-19T22:04:12;95806.97;;;19.98;45.16
27425;BME280;15244;49.088;11.886;2023-09-19T22:09:14;95792.16;;;19.91;45.27
27425;BME280;15244;49.088;11.886;2023-09-19T22:14:16;95789.19;;;19.86;45.20
27425;BME280;15244;49.088;11.886;2023-09-19T22:19:17;95787.75;;;19.81;45.17
27425;BME280;15244;49.088;11.886;2023-09-19T22:24:19;95788.28;;;19.76;45.57
27425;BME280;15244;49.088;11.886;2023-09-19T22:29:22;95791.59;;;19.71;45.62
27425;BME280;15244;49.088;11.886;2023-09-19T22:34:24;95788.16;;;19.67;45.68
27425;BME280;15244;49.088;11.886;2023-09-19T22:39:26;95798.44;;;19.66;45.81
27425;BME280;15244;49.088;11.886;2023-09-19T22:44:30;95792.25;;;19.62;45.77
27425;BME280;15244;49.088;11.886;2023-09-19T22:49:35;95799.53;;;19.56;45.84
27425;BME280;15244;49.088;11.886;2023-09-19T22:54:39;95799.19;;;19.54;46.06
27425;BME280;15244;49.088;11.886;2023-09-19T22:59:42;95800.06;;;19.51;46.03
27425;BME280;15244;49.088;11.886;2023-09-19T23:04:44;95800.19;;;19.47;46.11
27425;BME280;15244;49.088;11.886;2023-09-19T23:09:48;95803.03;;;19.44;46.15
27425;BME280;15244;49.088;11.886;2023-09-19T23:14:50;95809.13;;;19.39;46.23
27425;BME280;15244;49.088;11.886;2023-09-19T23:19:54;95810.78;;;19.36;46.42
27425;BME280;15244;49.088;11.886;2023-09-19T23:24:57;95809.31;;;19.32;46.24
27425;BME280;15244;49.088;11.886;2023-09-19T23:30:19;95808.75;;;19.24;46.39
27425;BME280;15244;49.088;11.886;2023-09-19T23:35:24;95811.63;;;19.20;46.59
27425;BME280;15244;49.088;11.886;2023-09-19T23:40:28;95816.47;;;19.16;46.57
27425;BME280;15244;49.088;11.886;2023-09-19T23:45:32;95814.59;;;19.13;46.63
27425;BME280;15244;49.088;11.886;2023-09-19T23:50:39;95816.22;;;19.11;46.66
27425;BME280;15244;49.088;11.886;2023-09-19T23:55:44;95812.81;;;19.07;46.68
